Time;durP1;ratioP1;P1;durP2;ratioP2;P2;SDS_P1;SDS_P2;PMS_P1;PMS_P2;Temp;Humidity;BMP_temperature;BMP_pressure;BME280_temperature;BME280_humidity;BME280_pressure;Samples;Min_cycle;Max_cycle;Signal;HPM_P1;HPM_P2
2022/07/15 00:01:55;;;;;;;6.65;1.20;;;;;;;16.58;100.00;102302.38;5115084;28;20081;-69
2022/07/15 00:04:20;;;;;;;5.60;1.10;;;;;;;16.62;100.00;102299.78;5115054;28;20390;-68
2022/07/15 00:06:46;;;;;;;8.20;1.20;;;;;;;16.64;100.00;102295.41;5115104;28;20061;-70
2022/07/15 00:09:11;;;;;;;7.47;1.83;;;;;;;16.58;100.00;102289.09;5114849;28;20027;-70
2022/07/15 00:11:37;;;;;;;6.47;1.05;;;;;;;16.54;100.00;102297.88;5115007;28;20042;-69
2022/07/15 00:14:02;;;;;;;7.05;1.67;;;;;;;16.49;100.00;102296.06;5096735;28;20031;-70
2022/07/15 00:16:27;;;;;;;6.72;1.50;;;;;;;16.45;100.00;102296.84;5096749;28;20088;-70
2022/07/15 00:18:53;;;;;;;6.45;1.50;;;;;;;16.48;100.00;102291.59;5109864;28;20383;-70
2022/07/15 00:21:18;;;;;;;10.05;1.00;;;;;;;16.50;100.00;102289.84;5094422;28;20038;-71
2022/07/15 00:23:43;;;;;;;6.28;1.35;;;;;;;16.47;100.00;102283.63;5112606;28;20477;-69
2022/07/15 00:26:09;;;;;;;7.43;1.38;;;;;;;16.42;100.00;102286.19;5102767;28;20103;-69
2022/07/15 00:28:34;;;;;;;3.75;1.20;;;;;;;16.36;100.00;102280.78;5094216;28;20073;-70
2022/07/15 00:30:59;;;;;;;9.32;1.30;;;;;;;16.39;100.00;102280.84;5094202;28;20111;-71
2022/07/15 00:33:25;;;;;;;6.45;1.23;;;;;;;16.28;100.00;102279.78;5094131;28;20464;-70
2022/07/15 00:35:51;;;;;;;8.95;1.67;;;;;;;16.22;100.00;102275.22;5094196;28;20099;-69
2022/07/15 00:38:16;;;;;;;2.80;0.95;;;;;;;16.15;100.00;102271.59;5093974;28;20027;-70
2022/07/15 00:40:42;;;;;;;8.52;1.60;;;;;;;16.16;100.00;102284.00;5093968;28;20408;-70
2022/07/15 00:43:08;;;;;;;5.35;1.25;;;;;;;16.15;100.00;102278.66;5093930;28;20028;-69
2022/07/15 00:45:33;;;;;;;7.70;1.42;;;;;;;16.03;100.00;102282.00;5094002;28;20081;-70
2022/07/15 00:47:58;;;;;;;6.65;1.35;;;;;;;16.06;100.00;102276.78;5093818;28;20024;-70
2022/07/15 00:50:27;;;;;;;8.38;1.55;;;;;;;16.06;100.00;102281.16;5093980;28;20020;-69
2022/07/15 00:53:02;;;;;;;8.68;1.27;;;;;;;16.06;100.00;102279.44;5097000;28;20038;-70
2022/07/15 00:55:30;;;;;;;7.15;1.13;;;;;;;16.05;100.00;102277.63;5082623;28;20047;-71
2022/07/15 00:58:00;;;;;;;6.10;1.40;;;;;;;15.91;100.00;102280.06;5093753;28;20103;-69
2022/07/15 01:00:26;;;;;;;6.88;1.30;;;;;;;15.89;100.00;102283.53;5093678;28;20050;-70
2022/07/15 01:02:53;;;;;;;6.70;1.30;;;;;;;15.74;100.00;102285.00;5075393;28;20020;-69
2022/07/15 01:05:20;;;;;;;5.20;1.00;;;;;;;15.62;100.00;102279.47;5093806;28;20028;-69
2022/07/15 01:07:46;;;;;;;6.43;1.63;;;;;;;15.49;100.00;102276.59;5093371;28;20103;-70
2022/07/15 01:10:12;;;;;;;5.10;1.45;;;;;;;15.41;100.00;102283.53;5093619;28;20475;-70
2022/07/15 01:12:40;;;;;;;5.38;1.10;;;;;;;15.40;100.00;102288.81;5093463;28;20050;-70
2022/07/15 01:15:06;;;;;;;5.80;1.30;;;;;;;15.38;100.00;102280.78;5093752;28;20027;-70
2022/07/15 01:17:31;;;;;;;11.05;1.40;;;;;;;15.32;100.00;102285.97;5093346;28;20371;-70
2022/07/15 01:19:56;;;;;;;7.93;1.70;;;;;;;15.24;100.00;102282.28;5096317;28;20024;-70
2022/07/15 01:22:22;;;;;;;9.80;1.65;;;;;;;15.23;100.00;102285.78;5107270;28;20024;-69
2022/07/15 01:24:47;;;;;;;4.80;1.45;;;;;;;15.07;100.00;102293.44;5088521;28;20027;-69
2022/07/15 01:27:12;;;;;;;5.15;1.20;;;;;;;15.04;100.00;102285.41;5113654;28;20055;-69
2022/07/15 01:29:38;;;;;;;7.70;1.42;;;;;;;14.99;100.00;102289.72;5113744;28;20019;-69
2022/07/15 01:32:03;;;;;;;7.03;1.50;;;;;;;15.04;100.00;102292.47;5113582;28;20027;-70
2022/07/15 01:34:29;;;;;;;10.70;2.22;;;;;;;14.95;100.00;102285.22;5095544;28;20024;-70
2022/07/15 01:36:54;;;;;;;7.10;1.30;;;;;;;15.06;100.00;102291.63;5112478;28;20489;-70
2022/07/15 01:39:19;;;;;;;10.18;1.40;;;;;;;14.92;100.00;102290.44;5095501;28;20047;-69
2022/07/15 01:41:45;;;;;;;5.47;1.08;;;;;;;14.93;100.00;102286.94;5089244;28;20024;-70
2022/07/15 01:44:13;;;;;;;5.05;1.30;;;;;;;14.81;100.00;102282.25;5093329;28;20066;-69
2022/07/15 01:46:39;;;;;;;7.28;1.35;;;;;;;14.83;100.00;102291.16;5093117;28;20036;-70
2022/07/15 01:49:22;;;;;;;7.35;1.55;;;;;;;14.77;100.00;102285.69;5093167;28;20523;-70
2022/07/15 01:51:49;;;;;;;5.75;1.27;;;;;;;14.91;100.00;102286.03;5102712;28;20102;-70
2022/07/15 01:54:15;;;;;;;3.90;0.80;;;;;;;15.15;100.00;102277.66;5112364;28;20475;-70
2022/07/15 01:56:40;;;;;;;6.40;1.58;;;;;;;15.22;100.00;102273.38;5113405;28;20024;-70
2022/07/15 01:59:05;;;;;;;5.35;1.20;;;;;;;14.98;100.00;102283.50;5113421;28;20475;-68
2022/07/15 02:01:31;;;;;;;7.25;1.00;;;;;;;14.85;100.00;102281.44;5113330;28;20020;-71
2022/07/15 02:03:56;;;;;;;7.07;1.35;;;;;;;14.79;100.00;102279.56;5113295;28;20031;-70
2022/07/15 02:06:22;;;;;;;7.65;0.93;;;;;;;14.96;100.00;102282.59;5095104;28;20073;-69
2022/07/15 02:08:47;;;;;;;3.17;1.02;;;;;;;15.03;100.00;102288.94;5113278;28;20076;-70
2022/07/15 02:11:13;;;;;;;6.28;1.02;;;;;;;14.90;100.00;102285.09;5113266;28;20499;-69
2022/07/15 02:13:38;;;;;;;3.30;1.00;;;;;;;14.79;100.00;102279.56;5113207;28;20023;-70
2022/07/15 02:16:04;;;;;;;3.83;0.95;;;;;;;14.76;100.00;102282.16;5113199;28;20111;-69
2022/07/15 02:18:29;;;;;;;12.32;1.40;;;;;;;14.57;100.00;102283.47;5110612;28;20031;-70
2022/07/15 02:20:55;;;;;;;8.52;1.58;;;;;;;14.53;100.00;102280.69;5101026;28;20024;-69
2022/07/15 02:23:21;;;;;;;6.10;1.02;;;;;;;14.41;100.00;102287.50;5099531;28;20081;-69
2022/07/15 02:25:46;;;;;;;4.53;1.20;;;;;;;14.34;100.00;102280.28;5113182;28;20026;-69
2022/07/15 02:28:12;;;;;;;6.07;1.05;;;;;;;14.25;100.00;102285.34;5113146;28;20497;-70
2022/07/15 02:30:40;;;;;;;3.58;1.15;;;;;;;14.30;100.00;102276.66;5113036;28;20050;-69
2022/07/15 02:33:06;;;;;;;7.05;1.30;;;;;;;14.31;100.00;102285.47;5112951;28;20102;-69
2022/07/15 02:35:32;;;;;;;8.27;1.30;;;;;;;14.25;100.00;102274.75;5113101;28;20027;-70
2022/07/15 02:37:57;;;;;;;7.90;1.67;;;;;;;14.20;100.00;102281.69;5112817;28;20027;-69
2022/07/15 02:40:23;;;;;;;5.55;1.85;;;;;;;14.19;100.00;102275.50;5112969;28;20031;-68
2022/07/15 02:42:50;;;;;;;7.13;1.30;;;;;;;14.29;100.00;102279.25;5112949;28;20038;-69
2022/07/15 02:45:17;;;;;;;5.15;1.38;;;;;;;14.24;100.00;102278.25;5112952;28;20356;-69
2022/07/15 02:47:43;;;;;;;8.63;1.38;;;;;;;14.15;100.00;102284.22;5112781;28;20019;-70
2022/07/15 02:50:08;;;;;;;3.97;0.88;;;;;;;14.16;100.00;102284.25;5116542;28;20027;-69
2022/07/15 02:52:34;;;;;;;4.05;1.38;;;;;;;14.13;100.00;102292.13;5116546;28;20072;-70
2022/07/15 02:55:00;;;;;;;7.10;1.50;;;;;;;14.03;100.00;102289.22;5115765;28;20044;-69
2022/07/15 02:57:25;;;;;;;9.23;1.45;;;;;;;13.95;100.00;102291.66;5116299;28;20023;-69
2022/07/15 02:59:50;;;;;;;5.93;1.30;;;;;;;13.94;100.00;102300.44;5116353;28;20035;-70
2022/07/15 03:02:16;;;;;;;8.45;1.13;;;;;;;13.94;100.00;102295.16;5116202;28;20024;-69
2022/07/15 03:04:41;;;;;;;4.53;1.42;;;;;;;13.91;100.00;102292.44;5116395;28;20043;-69
2022/07/15 03:07:07;;;;;;;3.30;1.63;;;;;;;13.85;100.00;102301.09;5116176;28;20019;-69
2022/07/15 03:09:32;;;;;;;9.35;2.55;;;;;;;13.84;100.00;102304.59;5116220;28;20024;-70
2022/07/15 03:11:57;;;;;;;2.83;1.05;;;;;;;13.81;100.00;102301.88;5116217;28;20019;-70
2022/07/15 03:14:23;;;;;;;2.83;0.80;;;;;;;13.76;100.00;102301.75;5097909;28;20019;-70
2022/07/15 03:16:48;;;;;;;6.60;1.35;;;;;;;13.77;100.00;102306.19;5100447;28;20020;-70
2022/07/15 03:19:13;;;;;;;5.47;1.10;;;;;;;13.84;100.00;102307.25;5087385;28;20024;-69
2022/07/15 03:21:39;;;;;;;2.65;1.00;;;;;;;13.85;100.00;102313.41;5114871;28;20168;-70
2022/07/15 03:24:04;;;;;;;5.38;1.20;;;;;;;13.83;100.00;102319.56;5103094;28;20473;-69
2022/07/15 03:26:29;;;;;;;6.13;1.10;;;;;;;13.80;100.00;102319.50;5115824;28;20510;-69
2022/07/15 03:28:55;;;;;;;4.50;1.55;;;;;;;13.82;100.00;102311.59;5115866;28;20524;-69
2022/07/15 03:31:20;;;;;;;8.55;1.27;;;;;;;13.83;100.00;102316.91;5115710;28;20012;-70
2022/07/15 03:33:45;;;;;;;5.72;1.10;;;;;;;13.82;100.00;102323.09;5115812;28;20023;-70
2022/07/15 03:36:11;;;;;;;7.35;1.30;;;;;;;13.76;100.00;102322.91;5115654;28;20050;-70
2022/07/15 03:38:36;;;;;;;5.63;1.08;;;;;;;13.74;100.00;102322.00;5115739;28;20034;-70
2022/07/15 03:41:01;;;;;;;3.80;1.00;;;;;;;13.72;100.00;102325.44;5115576;28;20491;-71
2022/07/15 03:43:29;;;;;;;8.55;1.23;;;;;;;13.78;100.00;102321.22;5115530;28;20110;-70
2022/07/15 03:45:55;;;;;;;6.43;1.13;;;;;;;13.83;100.00;102324.84;5097163;28;20028;-69
2022/07/15 03:48:21;;;;;;;4.28;1.55;;;;;;;13.87;100.00;102330.25;5115486;28;20034;-69
2022/07/15 03:50:47;;;;;;;8.32;1.38;;;;;;;13.89;100.00;102328.53;5115396;28;20016;-69
2022/07/15 03:53:13;;;;;;;4.45;0.95;;;;;;;13.91;100.00;102338.28;5115089;28;20380;-69
2022/07/15 03:55:38;;;;;;;7.53;1.67;;;;;;;13.93;100.00;102340.97;5115128;28;20034;-69
2022/07/15 03:58:04;;;;;;;4.78;1.70;;;;;;;13.92;100.00;102334.81;5115275;28;20058;-69
2022/07/15 04:00:30;;;;;;;2.35;0.80;;;;;;;13.89;100.00;102336.47;5114012;28;20027;-70
2022/07/15 04:02:55;;;;;;;3.40;0.80;;;;;;;13.87;100.00;102346.13;5115170;28;20031;-70
2022/07/15 04:05:21;;;;;;;5.38;1.08;;;;;;;13.79;100.00;102338.84;5079889;28;20025;-69
2022/07/15 04:07:46;;;;;;;4.57;1.02;;;;;;;13.82;100.00;102340.69;5114973;28;20019;-70
2022/07/15 04:10:12;;;;;;;3.67;0.82;;;;;;;13.80;100.00;102340.66;5114943;28;20070;-69
2022/07/15 04:12:37;;;;;;;6.97;1.40;;;;;;;13.79;100.00;102344.16;5115080;28;20360;-68
2022/07/15 04:15:03;;;;;;;3.53;1.00;;;;;;;13.83;100.00;102348.66;5114824;28;20027;-70
2022/07/15 04:17:29;;;;;;;8.88;3.08;;;;;;;13.89;100.00;102347.97;5114851;28;20023;-70
2022/07/15 04:19:54;;;;;;;10.45;3.13;;;;;;;13.90;100.00;102354.13;5114738;28;20475;-70
2022/07/15 04:22:20;;;;;;;10.15;1.92;;;;;;;13.92;100.00;102352.44;5108065;28;20421;-68
2022/07/15 04:24:45;;;;;;;8.45;1.80;;;;;;;13.97;100.00;102353.44;5107780;28;20023;-70
2022/07/15 04:27:11;;;;;;;8.20;1.17;;;;;;;14.01;100.00;102360.59;5114761;28;20019;-69
2022/07/15 04:29:36;;;;;;;5.05;1.33;;;;;;;14.02;100.00;102359.75;5114588;28;20023;-69
2022/07/15 04:32:02;;;;;;;5.75;1.15;;;;;;;14.07;100.00;102349.31;5114542;28;20040;-71
2022/07/15 04:34:27;;;;;;;8.32;1.33;;;;;;;14.16;100.00;102349.53;5114530;28;20024;-69
2022/07/15 04:36:53;;;;;;;4.57;0.90;;;;;;;14.20;100.00;102350.50;5114356;28;20542;-69
2022/07/15 04:39:18;;;;;;;5.88;1.00;;;;;;;14.21;100.00;102353.19;5114485;28;20072;-68
2022/07/15 04:41:44;;;;;;;7.15;1.40;;;;;;;14.24;100.00;102355.91;5114441;28;20036;-69
2022/07/15 04:44:09;;;;;;;3.13;0.82;;;;;;;14.31;100.00;102349.03;5114408;28;20027;-70
2022/07/15 04:46:35;;;;;;;2.00;0.93;;;;;;;14.38;100.00;102350.06;5114237;28;20069;-70
2022/07/15 04:51:44;;;;;;;6.22;0.90;;;;;;;14.48;100.00;102353.00;5114517;28;20085;-69
2022/07/15 04:54:09;;;;;;;5.07;0.93;;;;;;;14.58;100.00;102355.88;5098434;28;20071;-69
2022/07/15 04:56:34;;;;;;;3.30;0.82;;;;;;;14.68;100.00;102357.94;5093785;28;20027;-70
2022/07/15 04:59:00;;;;;;;6.60;0.82;;;;;;;14.78;100.00;102357.28;5093586;28;20020;-69
2022/07/15 05:01:25;;;;;;;7.03;0.70;;;;;;;14.90;100.00;102361.09;5093674;28;20031;-70
2022/07/15 05:03:50;;;;;;;2.58;0.70;;;;;;;15.00;100.00;102363.06;5093631;28;20028;-69
2022/07/15 05:06:16;;;;;;;4.45;0.90;;;;;;;15.10;100.00;102354.47;5093681;28;20032;-70
2022/07/15 05:08:41;;;;;;;10.18;1.20;;;;;;;15.18;100.00;102352.88;5093415;28;20020;-70
2022/07/15 05:11:06;;;;;;;5.40;1.02;;;;;;;15.25;100.00;102356.56;5075286;28;20031;-70
2022/07/15 05:13:32;;;;;;;6.85;0.95;;;;;;;15.35;100.00;102357.66;5093499;28;20453;-69
2022/07/15 05:15:57;;;;;;;4.53;0.93;;;;;;;15.41;100.00;102352.47;5093478;28;20024;-69
2022/07/15 05:18:23;;;;;;;4.30;0.60;;;;;;;15.44;100.00;102344.59;5095268;28;20024;-69
2022/07/15 05:20:48;;;;;;;2.53;0.90;;;;;;;15.51;100.00;102346.50;5100635;28;20022;-69
2022/07/15 05:23:16;;;;;;;3.88;0.80;;;;;;;15.56;100.00;102343.94;5095376;28;20421;-69
2022/07/15 05:25:42;;;;;;;6.60;1.15;;;;;;;15.63;100.00;102345.84;5106326;28;20474;-69
2022/07/15 05:28:08;;;;;;;6.32;1.20;;;;;;;15.67;100.00;102344.16;5107531;28;20396;-69
2022/07/15 05:30:36;;;;;;;7.25;1.15;;;;;;;15.67;100.00;102338.84;5095417;28;20015;-71
2022/07/15 05:33:02;;;;;;;4.80;1.10;;;;;;;15.73;100.00;102341.59;5099068;28;20028;-70
2022/07/15 05:35:27;;;;;;;4.60;0.85;;;;;;;15.78;100.00;102347.91;5093228;28;20022;-69
2022/07/15 05:37:52;;;;;;;3.97;1.25;;;;;;;15.80;100.00;102343.56;5093166;28;20052;-70
2022/07/15 05:40:18;;;;;;;4.53;0.70;;;;;;;15.84;100.00;102340.09;5075030;28;20060;-69
2022/07/15 05:42:43;;;;;;;5.57;1.10;;;;;;;15.87;100.00;102338.34;5075064;28;20039;-70
2022/07/15 05:45:09;;;;;;;3.95;0.60;;;;;;;15.91;100.00;102340.19;5093151;28;20020;-70
2022/07/15 05:47:35;;;;;;;6.38;1.30;;;;;;;15.96;100.00;102333.22;5093322;28;20433;-70
2022/07/15 05:50:00;;;;;;;2.80;0.40;;;;;;;15.98;100.00;102342.13;5093152;28;20024;-69
2022/07/15 05:52:26;;;;;;;5.43;1.08;;;;;;;16.04;100.00;102336.91;5093232;28;20386;-69
2022/07/15 05:54:51;;;;;;;4.93;0.88;;;;;;;16.10;100.00;102334.38;5094808;28;20036;-70
2022/07/15 05:57:16;;;;;;;6.70;1.08;;;;;;;16.15;100.00;102345.06;5093064;28;20066;-69
2022/07/15 05:59:42;;;;;;;5.15;1.27;;;;;;;16.21;100.00;102339.88;5093141;28;20525;-69
2022/07/15 06:02:08;;;;;;;5.53;0.70;;;;;;;16.25;100.00;102343.44;5093102;28;20032;-69
2022/07/15 06:04:33;;;;;;;4.65;0.70;;;;;;;16.30;100.00;102341.78;5093299;28;20020;-68
2022/07/15 06:06:58;;;;;;;5.50;0.73;;;;;;;16.35;100.00;102342.75;5093358;28;20021;-69
2022/07/15 06:09:24;;;;;;;7.00;0.93;;;;;;;16.40;100.00;102343.72;5094406;28;20027;-70
2022/07/15 06:11:49;;;;;;;5.63;0.60;;;;;;;16.44;100.00;102345.56;5100588;28;20381;-71
2022/07/15 06:14:15;;;;;;;11.43;1.25;;;;;;;16.48;100.00;102339.44;5093064;28;20038;-70
2022/07/15 06:16:41;;;;;;;6.88;0.75;;;;;;;16.50;100.00;102337.69;5093158;28;20024;-69
2022/07/15 06:19:08;;;;;;;4.00;0.60;;;;;;;16.60;100.00;102343.16;5083645;28;20494;-69
2022/07/15 06:21:35;;;;;;;4.85;1.05;;;;;;;16.69;100.00;102341.50;5112907;28;20020;-69
2022/07/15 06:24:01;;;;;;;3.95;0.57;;;;;;;16.76;100.00;102333.66;5102113;28;20114;-70
2022/07/15 06:26:26;;;;;;;1.38;0.65;;;;;;;16.85;100.00;102340.00;5117124;28;20058;-69
2022/07/15 06:28:51;;;;;;;6.13;1.10;;;;;;;16.86;100.00;102339.13;5117192;28;20051;-69
2022/07/15 06:31:17;;;;;;;5.00;0.88;;;;;;;16.95;100.00;102334.84;5117320;28;20031;-69
2022/07/15 06:33:42;;;;;;;3.58;1.02;;;;;;;17.11;100.00;102342.16;5098869;28;20436;-69
2022/07/15 06:36:07;;;;;;;2.92;0.82;;;;;;;17.26;100.00;102335.25;5117057;28;20030;-70
2022/07/15 06:38:33;;;;;;;6.55;0.80;;;;;;;17.42;100.00;102337.22;5117325;28;20024;-71
2022/07/15 06:40:59;;;;;;;1.85;0.50;;;;;;;17.58;100.00;102340.06;5117254;28;20026;-70
2022/07/15 06:43:24;;;;;;;3.45;0.70;;;;;;;17.64;100.00;102341.03;5110403;28;20028;-70
2022/07/15 06:45:49;;;;;;;5.00;0.80;;;;;;;17.77;100.00;102343.81;5096532;28;20020;-70
2022/07/15 06:48:15;;;;;;;4.15;0.55;;;;;;;17.93;100.00;102339.59;5096660;28;20525;-69
2022/07/15 06:50:40;;;;;;;3.42;0.80;;;;;;;17.92;100.00;102349.34;5096488;28;20085;-70
2022/07/15 06:53:05;;;;;;;3.00;0.60;;;;;;;18.02;100.00;102345.88;5096450;28;20052;-69
2022/07/15 06:55:31;;;;;;;4.20;0.70;;;;;;;18.07;100.00;102353.94;5097504;28;20026;-69
2022/07/15 06:57:56;;;;;;;3.42;0.70;;;;;;;18.11;100.00;102349.50;5116544;28;20024;-69
2022/07/15 07:00:22;;;;;;;4.95;0.80;;;;;;;18.01;100.00;102351.19;5103518;28;20086;-70
2022/07/15 07:02:47;;;;;;;8.10;0.95;;;;;;;17.99;100.00;102356.53;5096293;28;20020;-70
2022/07/15 07:05:12;;;;;;;3.72;0.60;;;;;;;17.92;100.00;102364.41;5078048;28;20032;-70
2022/07/15 07:07:38;;;;;;;3.35;0.77;;;;;;;17.86;100.00;102358.16;5109819;28;20020;-70
2022/07/15 07:10:04;;;;;;;6.32;0.73;;;;;;;17.96;100.00;102358.25;5096173;28;20066;-70
2022/07/15 07:12:30;;;;;;;3.08;0.82;;;;;;;17.96;100.00;102359.16;5116192;28;20451;-71
2022/07/15 07:14:55;;;;;;;4.80;0.65;;;;;;;18.03;100.00;102362.78;5085424;28;20031;-69
2022/07/15 07:17:20;;;;;;;2.08;0.65;;;;;;;18.03;100.00;102357.47;5101750;28;20031;-69
2022/07/15 07:19:46;;;;;;;7.07;0.82;;;;;;;18.02;100.00;102361.00;5103527;28;20024;-70
2022/07/15 07:22:12;;;;;;;2.65;0.70;;;;;;;17.96;100.00;102366.25;5109223;28;20028;-70
2022/07/15 07:24:37;;;;;;;6.35;1.08;;;;;;;17.77;100.00;102365.13;5108097;28;20418;-70
2022/07/15 07:27:03;;;;;;;5.97;0.90;;;;;;;17.72;99.75;102359.75;5097281;28;20032;-70
2022/07/15 07:29:28;;;;;;;3.17;0.75;;;;;;;17.73;100.00;102353.56;5096026;28;20024;-70
2022/07/15 07:31:54;;;;;;;4.95;0.50;;;;;;;17.74;100.00;102355.31;5095788;28;20028;-71
2022/07/15 07:34:19;;;;;;;2.95;0.60;;;;;;;17.84;100.00;102361.66;5095829;28;20036;-70
2022/07/15 07:36:45;;;;;;;5.10;0.90;;;;;;;17.90;100.00;102358.16;5077448;28;20450;-70
2022/07/15 07:39:12;;;;;;;7.43;0.82;;;;;;;17.93;100.00;102361.78;5107405;28;20103;-70
2022/07/15 07:41:37;;;;;;;4.50;1.05;;;;;;;18.00;100.00;102362.72;5110946;28;20028;-70
2022/07/15 07:44:03;;;;;;;7.40;0.90;;;;;;;18.08;100.00;102365.47;5095486;28;20024;-69
2022/07/15 07:46:28;;;;;;;4.13;0.70;;;;;;;18.14;100.00;102361.09;5095663;28;20028;-70
2022/07/15 07:48:53;;;;;;;5.70;0.50;;;;;;;18.28;100.00;102363.00;5095733;28;20031;-71
2022/07/15 07:51:19;;;;;;;4.72;0.55;;;;;;;18.28;100.00;102363.88;5095890;28;20051;-70
2022/07/15 07:53:46;;;;;;;2.13;0.50;;;;;;;18.27;100.00;102366.53;5095426;28;20056;-70
2022/07/15 07:56:12;;;;;;;6.07;0.63;;;;;;;18.32;100.00;102370.16;5101552;28;20476;-70
2022/07/15 07:58:37;;;;;;;3.63;0.50;;;;;;;18.38;99.04;102354.22;5097578;28;20055;-71
2022/07/15 08:01:03;;;;;;;2.40;0.50;;;;;;;18.36;94.25;102350.63;5078754;28;20123;-70
2022/07/15 08:03:29;;;;;;;2.25;0.40;;;;;;;18.42;96.56;102358.69;5095309;28;20027;-69
2022/07/15 08:05:54;;;;;;;2.38;0.57;;;;;;;18.51;95.75;102356.06;5095379;28;20042;-70
2022/07/15 08:08:22;;;;;;;4.15;0.70;;;;;;;18.43;94.86;102352.47;5095083;28;20020;-69
2022/07/15 08:10:51;;;;;;;5.55;0.93;;;;;;;18.43;93.26;102354.25;5091034;28;20061;-70
2022/07/15 08:13:18;;;;;;;1.85;0.60;;;;;;;18.46;97.41;102357.84;5095317;28;20051;-69
2022/07/15 08:15:44;;;;;;;3.10;0.70;;;;;;;18.51;96.87;102348.09;5095185;28;20028;-70
2022/07/15 08:18:09;;;;;;;3.42;0.50;;;;;;;18.69;97.15;102357.09;5095770;28;20392;-68
2022/07/15 08:20:36;;;;;;;2.28;0.52;;;;;;;18.73;89.95;102350.91;5101883;28;20516;-70
2022/07/15 08:23:02;;;;;;;4.40;0.77;;;;;;;18.92;90.64;102359.94;5103150;28;20019;-71
2022/07/15 08:25:29;;;;;;;1.15;0.30;;;;;;;19.06;74.18;102349.38;5108850;28;20102;-70
2022/07/15 08:27:56;;;;;;;0.85;0.17;;;;;;;19.25;72.26;102350.38;5094767;28;20016;-70
2022/07/15 08:30:22;;;;;;;1.88;0.47;;;;;;;19.34;82.51;102360.16;5094771;28;20395;-69
2022/07/15 08:32:47;;;;;;;0.60;0.25;;;;;;;19.34;81.71;102361.09;5095210;28;20106;-70
2022/07/15 08:35:13;;;;;;;4.28;0.85;;;;;;;19.44;81.53;102356.66;5113960;28;20433;-70
2022/07/15 08:37:38;;;;;;;5.75;0.60;;;;;;;19.50;83.66;102348.66;5115067;28;20026;-70
2022/07/15 08:40:06;;;;;;;2.83;0.77;;;;;;;19.60;84.02;102356.72;5115007;28;20069;-71
2022/07/15 08:42:31;;;;;;;2.25;0.50;;;;;;;19.66;86.23;102356.75;5115208;28;20383;-70
2022/07/15 08:44:56;;;;;;;1.95;0.40;;;;;;;19.72;83.03;102359.41;5096961;28;20023;-69
2022/07/15 08:47:23;;;;;;;2.55;0.60;;;;;;;19.99;88.35;102358.63;5096659;28;20393;-70
2022/07/15 08:49:55;;;;;;;2.42;0.50;;;;;;;20.06;82.26;102354.16;5115057;28;20039;-70
2022/07/15 08:52:22;;;;;;;2.20;0.75;;;;;;;20.11;80.73;102357.75;5114861;28;20444;-69
2022/07/15 08:54:48;;;;;;;3.47;0.50;;;;;;;20.09;80.25;102351.53;5113020;28;20088;-70
2022/07/15 08:57:14;;;;;;;3.15;0.50;;;;;;;20.28;76.60;102356.84;5114304;28;20469;-70
2022/07/15 08:59:41;;;;;;;2.90;0.40;;;;;;;20.30;73.71;102361.31;5114808;28;20019;-70
2022/07/15 09:02:06;;;;;;;1.88;0.50;;;;;;;20.37;71.74;102356.88;5114584;28;20114;-70
2022/07/15 09:04:32;;;;;;;2.90;0.70;;;;;;;20.40;69.37;102351.50;5114334;28;20423;-70
2022/07/15 09:07:03;;;;;;;0.88;0.40;;;;;;;20.38;66.45;102358.66;5114264;28;20459;-70
2022/07/15 09:09:36;;;;;;;2.13;0.85;;;;;;;20.38;69.29;102362.22;5114141;28;20390;-70
2022/07/15 09:12:06;;;;;;;2.63;0.50;;;;;;;20.32;69.57;102359.56;5114918;28;20024;-71
2022/07/15 09:14:34;;;;;;;3.08;0.52;;;;;;;20.28;73.16;102352.44;5105742;28;20375;-70
2022/07/15 09:17:09;;;;;;;2.33;0.40;;;;;;;20.23;71.54;102356.00;5093873;28;20069;-70
2022/07/15 09:20:08;;;;;;;4.70;0.75;;;;;;;20.26;72.53;102347.97;5096724;28;20052;-69
2022/07/15 09:22:57;;;;;;;1.23;0.40;;;;;;;20.29;73.71;102348.84;5075515;28;20044;-69
2022/07/15 09:25:24;;;;;;;4.35;0.50;;;;;;;20.35;75.92;102353.31;5112319;28;20032;-70
2022/07/15 09:27:50;;;;;;;1.20;0.60;;;;;;;20.42;72.70;102344.41;5114103;28;20026;-71
2022/07/15 09:36:20;;;;;;;2.72;0.60;;;;;;;20.82;71.24;102348.81;5113719;28;20489;-70
2022/07/15 09:38:50;;;;;;;10.35;1.60;;;;;;;21.03;71.44;102335.41;5113824;28;20481;-71
2022/07/15 09:41:36;;;;;;;1.83;0.60;;;;;;;21.16;68.02;102338.03;5113659;28;20027;-70
2022/07/15 09:44:18;;;;;;;2.25;0.40;;;;;;;20.78;67.45;102337.25;5113803;28;20024;-71
2022/07/15 09:46:51;;;;;;;2.78;0.60;;;;;;;20.65;68.89;102346.16;5113869;28;20024;-70
2022/07/15 09:49:22;;;;;;;0.55;0.50;;;;;;;20.74;69.97;102346.19;5113694;28;20099;-71
2022/07/15 09:51:54;;;;;;;3.35;0.80;;;;;;;20.50;72.13;102337.25;5113692;28;20084;-70
2022/07/15 09:54:31;;;;;;;4.90;0.88;;;;;;;20.65;70.50;102338.16;5111961;28;20067;-70
2022/07/15 09:57:01;;;;;;;1.52;0.80;;;;;;;20.88;71.08;102336.34;5113818;28;20034;-70
2022/07/15 09:59:29;;;;;;;3.72;0.80;;;;;;;20.83;70.42;102339.91;5098318;28;20536;-70
2022/07/15 10:01:54;;;;;;;1.77;0.65;;;;;;;20.74;67.78;102345.28;5117747;28;20030;-70
2022/07/15 10:04:23;;;;;;;2.30;0.80;;;;;;;20.76;67.34;102339.03;5117849;28;20027;-71
2022/07/15 10:06:50;;;;;;;3.90;0.80;;;;;;;20.83;68.63;102340.78;5118067;28;20079;-69
2022/07/15 10:09:22;;;;;;;2.47;0.82;;;;;;;20.63;69.53;102342.59;5117868;28;20024;-69
2022/07/15 10:11:52;;;;;;;3.97;0.80;;;;;;;20.67;72.08;102333.66;5117843;28;20176;-69
2022/07/15 10:14:34;;;;;;;1.98;0.68;;;;;;;20.85;70.04;102330.13;5110697;28;20020;-71
2022/07/15 10:17:18;;;;;;;1.85;0.50;;;;;;;21.11;70.18;102335.38;5096988;28;20457;-70
2022/07/15 10:20:14;;;;;;;4.95;0.82;;;;;;;21.18;62.43;102325.53;5080986;28;20024;-70
2022/07/15 10:22:53;;;;;;;3.15;0.80;;;;;;;21.27;63.90;102319.25;5097248;28;20538;-71
2022/07/15 10:25:18;;;;;;;2.70;0.80;;;;;;;21.21;62.90;102325.53;5097116;28;20023;-70
2022/07/15 10:28:22;;;;;;;2.47;0.80;;;;;;;21.18;63.96;102314.84;5097067;28;20028;-71
2022/07/15 10:31:18;;;;;;;2.03;0.85;;;;;;;21.52;65.07;102311.97;5106514;28;20526;-70
2022/07/15 10:34:06;;;;;;;1.42;0.63;;;;;;;21.58;60.99;102311.09;5110876;28;20537;-70
2022/07/15 10:36:40;;;;;;;3.08;0.60;;;;;;;21.47;63.54;102314.66;5109966;28;20023;-70
2022/07/15 10:39:06;;;;;;;3.72;0.63;;;;;;;20.95;63.47;102306.91;5096554;28;20032;-70
2022/07/15 10:42:04;;;;;;;2.90;0.88;;;;;;;21.01;64.25;102306.84;5096783;28;20031;-70
2022/07/15 10:44:29;;;;;;;3.42;0.80;;;;;;;20.98;64.57;102301.53;5069678;28;20146;-72
2022/07/15 10:47:13;;;;;;;3.45;0.90;;;;;;;21.23;64.09;102297.84;5116892;28;20055;-70
2022/07/15 10:49:40;;;;;;;3.83;0.85;;;;;;;21.36;63.16;102295.09;5117419;28;20475;-70
2022/07/15 10:52:20;;;;;;;1.48;0.70;;;;;;;21.41;63.22;102297.78;5117073;28;20026;-71
2022/07/15 10:55:05;;;;;;;2.25;0.70;;;;;;;21.75;60.40;102311.00;5113051;28;20165;-70
2022/07/15 10:57:42;;;;;;;2.15;1.20;;;;;;;22.10;60.76;102300.00;5083004;28;20020;-69
2022/07/15 11:00:20;;;;;;;1.42;0.77;;;;;;;21.96;58.17;102302.81;5095329;28;20020;-70
2022/07/15 11:03:04;;;;;;;3.83;1.00;;;;;;;21.50;58.29;102300.38;5095017;28;20020;-71
2022/07/15 11:05:29;;;;;;;3.00;1.10;;;;;;;21.70;59.39;102309.25;5095354;28;20073;-70
2022/07/15 11:07:55;;;;;;;2.08;0.90;;;;;;;21.87;60.48;102306.44;5114901;28;20028;-70
2022/07/15 11:10:21;;;;;;;3.17;1.25;;;;;;;21.87;57.74;102306.44;5115579;28;20038;-71
2022/07/15 11:12:50;;;;;;;5.40;1.00;;;;;;;22.17;61.36;102306.22;5091320;28;20028;-71
2022/07/15 11:15:19;;;;;;;3.65;1.45;;;;;;;22.34;57.46;102304.31;5095000;28;20024;-71
2022/07/15 11:17:49;;;;;;;3.45;1.10;;;;;;;22.39;55.63;102307.81;5083485;28;20020;-71
2022/07/15 11:20:18;;;;;;;3.50;1.25;;;;;;;22.35;56.01;102302.50;5103511;28;20038;-70
2022/07/15 11:22:47;;;;;;;2.83;1.00;;;;;;;22.65;56.57;102300.41;5105812;28;20034;-70
2022/07/15 11:25:20;;;;;;;3.83;1.20;;;;;;;22.81;54.25;102293.97;5112036;28;20032;-70
2022/07/15 11:28:01;;;;;;;2.97;1.13;;;;;;;22.79;54.53;102313.66;5104205;28;20059;-70
2022/07/15 11:30:32;;;;;;;5.10;1.33;;;;;;;22.88;53.67;102297.47;5094869;28;20468;-69